createdAt,value
2022-11-09T00:02:27.570Z,93999.72
2022-11-09T00:04:53.985Z,93977.41
2022-11-09T00:07:20.499Z,93991.25
2022-11-09T00:09:47.075Z,93995.69
2022-11-09T00:12:13.624Z,93996.78
2022-11-09T00:14:40.130Z,94006.44
2022-11-09T00:17:06.572Z,94009.34
2022-11-09T00:19:33.022Z,94007.78
2022-11-09T00:21:59.453Z,94011.44
2022-11-09T00:24:25.896Z,94005.00
2022-11-09T00:26:52.399Z,94010.22
2022-11-09T00:29:19.600Z,94007.91
2022-11-09T00:31:49.706Z,94007.91
2022-11-09T00:34:16.270Z,94010.81
2022-11-09T00:36:42.719Z,94006.16
2022-11-09T00:39:09.172Z,94011.69
2022-11-09T00:41:35.655Z,94013.53
2022-11-09T00:44:02.150Z,94010.44
2022-11-09T00:46:28.957Z,93998.00
2022-11-09T00:48:56.151Z,93999.38
2022-11-09T00:51:23.267Z,93987.31
2022-11-09T00:53:53.773Z,93998.91
2022-11-09T00:56:21.280Z,94000.41
2022-11-09T00:58:47.762Z,93997.03
2022-11-09T01:01:17.245Z,93999.19
2022-11-09T01:03:46.881Z,94000.53
2022-11-09T01:06:16.481Z,94001.13
2022-11-09T01:08:44.116Z,94000.97
2022-11-09T01:11:11.302Z,94007.03
2022-11-09T01:13:38.969Z,93980.44
2022-11-09T01:16:12.994Z,93995.69
2022-11-09T01:18:40.225Z,93999.03
2022-11-09T01:21:09.715Z,93997.19
2022-11-09T01:23:37.049Z,93993.34
2022-11-09T01:26:06.410Z,93994.13
2022-11-09T01:28:33.283Z,93997.03
2022-11-09T01:31:07.868Z,93998.38
2022-11-09T01:33:34.624Z,93994.50
2022-11-09T01:36:08.003Z,93994.34
2022-11-09T01:38:36.409Z,93989.72
2022-11-09T01:41:02.932Z,93990.31
2022-11-09T01:43:29.477Z,93975.28
2022-11-09T01:46:20.550Z,93995.22
2022-11-09T01:48:55.688Z,93990.91
2022-11-09T01:51:42.961Z,93988.59
2022-11-09T01:54:21.156Z,93992.25
2022-11-09T01:56:52.077Z,93990.72
2022-11-09T01:59:24.300Z,93989.94
2022-11-09T02:01:52.037Z,93994.41
2022-11-09T02:04:28.629Z,93988.00
2022-11-09T02:06:57.425Z,93976.66
2022-11-09T02:09:31.752Z,93979.25
2022-11-09T02:11:59.964Z,93975.88
2022-11-09T02:14:29.302Z,93974.34
2022-11-09T02:16:56.497Z,93955.28
2022-11-09T02:19:22.965Z,93969.31
2022-11-09T02:21:50.204Z,93961.25
2022-11-09T02:24:17.853Z,93967.97
2022-11-09T02:26:48.300Z,93952.25
2022-11-09T02:29:22.518Z,93961.25
2022-11-09T02:31:54.915Z,93959.38
2022-11-09T02:34:21.942Z,93954.50
2022-11-09T02:36:48.450Z,93958.13
2022-11-09T02:39:23.020Z,93959.69
2022-11-09T02:42:02.911Z,93951.22
2022-11-09T02:44:37.828Z,93961.25
2022-11-09T02:47:04.237Z,93957.09
2022-11-09T02:49:30.981Z,93960.75
2022-11-09T02:51:57.467Z,93963.91
2022-11-09T02:54:23.976Z,93968.56
2022-11-09T02:56:51.810Z,93957.38
2022-11-09T02:59:18.435Z,93933.94
2022-11-09T03:01:44.973Z,93958.91
2022-11-09T03:04:11.486Z,93959.13
2022-11-09T03:06:38.190Z,93943.41
2022-11-09T03:09:12.774Z,93958.03
2022-11-09T03:11:40.934Z,93960.63
2022-11-09T03:14:12.465Z,93960.94
2022-11-09T03:16:50.182Z,93964.91
2022-11-09T03:19:16.858Z,93958.13
2022-11-09T03:21:44.802Z,93968.56
2022-11-09T03:24:11.398Z,93958.13
2022-11-09T03:26:39.425Z,93960.75
2022-11-09T03:29:06.096Z,93968.56
2022-11-09T03:31:33.000Z,93972.13
2022-11-09T03:34:03.392Z,93971.81
2022-11-09T03:36:29.847Z,93968.16
2022-11-09T03:38:56.784Z,93965.25
2022-11-09T03:41:23.379Z,93966.81
2022-11-09T03:43:49.962Z,93969.88
2022-11-09T03:46:16.412Z,93978.47
2022-11-09T03:48:42.905Z,93957.56
2022-11-09T03:51:09.399Z,93967.00
2022-11-09T03:53:35.876Z,93971.44
2022-11-09T03:56:02.335Z,93975.09
2022-11-09T03:58:29.687Z,93978.94
2022-11-09T04:00:56.189Z,93982.78
2022-11-09T04:03:22.908Z,93974.97
2022-11-09T04:05:49.546Z,93980.38
2022-11-09T04:08:16.025Z,93985.78
2022-11-09T04:10:42.513Z,93973.94
2022-11-09T04:13:09.067Z,93987.59
2022-11-09T04:15:35.491Z,93997.78
2022-11-09T04:18:03.497Z,93992.19
2022-11-09T04:20:31.232Z,93991.78
2022-11-09T04:23:02.368Z,93990.91
2022-11-09T04:25:32.723Z,93993.69
2022-11-09T04:27:59.662Z,93990.78
2022-11-09T04:30:28.105Z,93984.19
2022-11-09T04:32:55.743Z,93988.06
2022-11-09T04:35:22.519Z,94000.81
2022-11-09T04:38:02.452Z,94003.88
2022-11-09T04:40:31.915Z,93986.22
2022-11-09T04:43:02.925Z,94004.41
2022-11-09T04:45:29.565Z,94001.88
2022-11-09T04:48:03.565Z,94004.53
2022-11-09T04:50:30.587Z,94001.50
2022-11-09T04:53:07.984Z,94012.88
2022-11-09T04:55:34.832Z,94019.75
2022-11-09T04:58:01.580Z,94026.81
2022-11-09T05:00:28.072Z,94025.59
2022-11-09T05:02:54.562Z,94028.28
2022-11-09T05:05:21.044Z,94039.31
2022-11-09T05:07:47.487Z,94054.31
2022-11-09T05:10:14.266Z,94052.09
2022-11-09T05:12:45.685Z,94062.34
2022-11-09T05:15:12.602Z,94058.47
2022-11-09T05:17:39.145Z,94060.81
2022-11-09T05:20:06.039Z,94050.09
2022-11-09T05:22:50.872Z,94044.28
2022-11-09T05:25:17.369Z,94041.69
2022-11-09T05:27:43.790Z,94044.28
2022-11-09T05:30:10.809Z,94053.94
2022-11-09T05:32:39.465Z,94041.69
2022-11-09T05:35:06.503Z,94039.84
2022-11-09T05:37:33.006Z,94030.41
2022-11-09T05:39:59.588Z,94044.75
2022-11-09T05:42:26.364Z,94054.91
2022-11-09T05:44:52.794Z,94047.81
2022-11-09T05:47:20.145Z,94051.22
2022-11-09T05:49:46.676Z,94057.19
2022-11-09T05:52:13.496Z,94053.81
2022-11-09T05:54:39.969Z,94058.25
2022-11-09T05:57:06.448Z,94058.25
2022-11-09T05:59:33.028Z,94059.81
2022-11-09T06:01:59.587Z,94064.25
2022-11-09T06:04:26.042Z,94063.47
2022-11-09T06:06:52.557Z,94041.72
2022-11-09T06:09:19.084Z,94063.00
2022-11-09T06:11:45.544Z,94062.53
2022-11-09T06:14:12.036Z,94058.94
2022-11-09T06:16:38.444Z,94056.19
2022-11-09T06:19:05.211Z,94059.06
2022-11-09T06:21:31.642Z,94040.59
2022-11-09T06:23:58.103Z,94053.38
2022-11-09T06:26:24.559Z,94054.94
2022-11-09T06:28:50.994Z,94049.66
2022-11-09T06:31:17.675Z,94060.34
2022-11-09T06:33:44.176Z,94074.22
2022-11-09T06:36:11.450Z,94063.34
2022-11-09T06:38:38.258Z,94058.41
2022-11-09T06:41:04.918Z,94060.84
2022-11-09T06:43:31.563Z,94057.75
2022-11-09T06:45:58.027Z,94063.84
2022-11-09T06:48:24.821Z,94057.88
2022-11-09T06:50:51.245Z,94073.91
2022-11-09T06:53:18.598Z,94080.16
2022-11-09T06:55:50.195Z,94068.97
2022-11-09T06:58:17.119Z,94076.31
2022-11-09T07:00:44.749Z,94070.13
2022-11-09T07:03:15.024Z,94078.13
2022-11-09T07:05:41.839Z,94079.69
2022-11-09T07:08:08.280Z,94076.31
2022-11-09T07:10:34.712Z,94077.38
2022-11-09T07:13:03.184Z,94077.09
2022-11-09T07:15:29.825Z,94078.81
2022-11-09T07:17:57.897Z,94083.63
2022-11-09T07:20:24.907Z,94082.63
2022-11-09T07:22:51.357Z,94088.97
2022-11-09T07:25:18.104Z,94087.41
2022-11-09T07:27:44.555Z,94091.94
2022-11-09T07:30:11.718Z,94101.66
2022-11-09T07:33:09.987Z,94078.97
2022-11-09T07:35:27.170Z,94101.31
2022-11-09T07:37:53.956Z,94096.00
2022-11-09T07:40:20.700Z,94093.25
2022-11-09T07:42:47.183Z,94112.19
2022-11-09T07:45:14.004Z,94112.38
2022-11-09T07:47:40.415Z,94108.09
2022-11-09T07:50:07.028Z,94115.34
2022-11-09T07:52:33.476Z,94108.28
2022-11-09T07:54:59.916Z,94124.88
2022-11-09T07:57:27.791Z,94115.22
2022-11-09T07:59:54.410Z,94108.63
2022-11-09T08:02:20.904Z,94110.97
2022-11-09T08:04:47.521Z,94113.44
2022-11-09T08:07:14.395Z,94099.91
2022-11-09T08:09:40.953Z,94116.84
2022-11-09T08:12:07.460Z,94122.25
2022-11-09T08:14:33.918Z,94126.13
2022-11-09T08:17:00.369Z,94124.75
2022-11-09T08:19:26.795Z,94130.59
2022-11-09T08:21:57.280Z,94130.47
2022-11-09T08:24:24.206Z,94127.47
2022-11-09T08:26:50.683Z,94134.38
2022-11-09T08:29:17.483Z,94138.72
2022-11-09T08:31:44.074Z,94127.97
2022-11-09T08:34:13.904Z,94132.91
2022-11-09T08:36:40.353Z,94148.25
2022-11-09T08:39:06.879Z,94133.81
2022-11-09T08:41:33.863Z,94136.91
2022-11-09T08:44:00.392Z,94134.78
2022-11-09T08:46:26.871Z,94140.75
2022-11-09T08:48:53.373Z,94140.75
2022-11-09T08:51:19.824Z,94145.97
2022-11-09T08:53:46.347Z,94173.97
2022-11-09T08:56:12.994Z,94162.75
2022-11-09T08:58:39.500Z,94158.75
2022-11-09T09:01:09.944Z,94168.16
2022-11-09T09:03:40.278Z,94179.34
2022-11-09T09:06:07.870Z,94174.59
2022-11-09T09:08:35.157Z,94181.94
2022-11-09T09:11:03.358Z,94189.78
2022-11-09T09:13:30.465Z,94184.41
2022-11-09T09:15:57.167Z,94177.94
2022-11-09T09:18:23.875Z,94185.78
2022-11-09T09:20:51.104Z,94188.09
2022-11-09T09:23:17.664Z,94189.31
2022-11-09T09:25:44.235Z,94181.50
2022-11-09T09:28:11.023Z,94185.84
2022-11-09T09:30:37.474Z,94184.66
2022-11-09T09:33:04.021Z,94185.88
2022-11-09T09:35:30.448Z,94183.59
2022-11-09T09:37:58.145Z,94187.88
2022-11-09T09:40:38.387Z,94189.41
2022-11-09T09:43:04.880Z,94188.63
2022-11-09T09:45:34.594Z,94184.97
2022-11-09T09:48:04.081Z,94187.25
2022-11-09T09:50:53.480Z,94179.88
2022-11-09T09:53:31.836Z,94195.47
2022-11-09T09:56:19.719Z,94189.50
2022-11-09T09:58:52.728Z,94176.88
2022-11-09T10:01:23.938Z,94190.84
2022-11-09T10:03:50.868Z,94188.28
2022-11-09T10:06:26.580Z,94189.22
2022-11-09T10:09:13.080Z,94195.84
2022-11-09T10:11:46.832Z,94196.25
2022-11-09T10:14:40.386Z,94188.41
2022-11-09T10:17:11.502Z,94178.25
2022-11-09T10:19:55.099Z,94168.41
2022-11-09T10:23:00.565Z,94168.59
2022-11-09T10:25:50.198Z,94161.41
2022-11-09T10:28:17.473Z,94155.69
2022-11-09T10:30:44.695Z,94146.44
2022-11-09T10:33:11.114Z,94150.28
2022-11-09T10:35:45.022Z,94144.31
2022-11-09T10:38:29.334Z,94142.94
2022-11-09T10:41:34.893Z,94133.22
2022-11-09T10:44:20.218Z,94129.22
2022-11-09T10:47:16.638Z,94126.44
2022-11-09T10:50:25.481Z,94128.59
2022-11-09T10:53:21.168Z,94121.97
2022-11-09T10:56:17.640Z,94124.44
2022-11-09T10:59:43.025Z,94109.69
2022-11-09T11:02:28.950Z,94112.13
2022-11-09T11:05:16.904Z,94113.81
2022-11-09T11:08:42.139Z,94111.97
2022-11-09T11:11:34.999Z,94112.28
2022-11-09T11:14:23.826Z,94114.75
2022-11-09T11:17:27.722Z,94114.38
2022-11-09T11:20:31.045Z,94110.97
2022-11-09T11:23:17.975Z,94105.63
2022-11-09T11:26:23.543Z,94092.16
2022-11-09T11:29:45.281Z,94094.53
2022-11-09T11:32:30.739Z,94100.00
2022-11-09T11:35:26.296Z,94097.25
2022-11-09T11:38:25.111Z,94110.41
2022-11-09T11:41:35.353Z,94107.16
2022-11-09T11:45:02.995Z,94107.63
2022-11-09T11:48:08.523Z,94101.66
2022-11-09T11:51:31.573Z,94090.63
2022-11-09T11:54:25.462Z,94094.13
2022-11-09T11:58:07.198Z,94084.63
2022-11-09T12:01:03.771Z,94088.72
2022-11-09T12:04:00.049Z,94084.63
2022-11-09T12:07:08.307Z,94071.22
2022-11-09T12:10:06.558Z,94082.94
2022-11-09T12:13:14.294Z,94078.00
2022-11-09T12:16:14.078Z,94081.09
2022-11-09T12:19:35.052Z,94078.41
2022-11-09T12:22:38.869Z,94079.09
2022-11-09T12:25:43.024Z,94079.50
2022-11-09T12:28:50.444Z,94069.00
2022-11-09T12:31:56.823Z,94067.88
2022-11-09T12:34:57.100Z,94064.38
2022-11-09T12:37:51.165Z,94069.56
2022-11-09T12:40:42.791Z,94066.09
2022-11-09T12:43:34.209Z,94062.53
2022-11-09T12:46:22.607Z,94053.59
2022-11-09T12:49:35.103Z,94031.84
2022-11-09T12:52:27.007Z,94054.50
2022-11-09T12:55:18.367Z,94039.47
2022-11-09T12:58:03.928Z,94062.25
2022-11-09T13:00:51.671Z,94055.72
2022-11-09T13:03:39.875Z,94056.19
2022-11-09T13:06:30.340Z,94047.41
2022-11-09T13:09:15.501Z,94047.59
2022-11-09T13:12:35.417Z,94052.84
2022-11-09T13:15:22.277Z,94050.41
2022-11-09T13:18:45.871Z,94051.66
2022-11-09T13:21:33.412Z,94046.81
2022-11-09T13:24:30.564Z,94057.91
2022-11-09T13:27:47.514Z,94047.91
2022-11-09T13:30:35.371Z,94049.66
2022-11-09T13:33:22.227Z,94046.88
2022-11-09T13:36:07.509Z,94052.75
2022-11-09T13:39:30.844Z,94052.75
2022-11-09T13:42:31.225Z,94047.50
2022-11-09T13:45:43.231Z,94052.31
2022-11-09T13:48:36.520Z,94055.56
2022-11-09T13:51:43.822Z,94058.63
2022-11-09T13:54:36.960Z,94051.88
2022-11-09T13:57:24.665Z,94051.09
2022-11-09T14:00:19.529Z,94053.72
2022-11-09T14:03:18.302Z,94055.56
2022-11-09T14:06:03.394Z,94055.28
2022-11-09T14:08:49.133Z,94062.69
2022-11-09T14:11:49.145Z,94060.69
2022-11-09T14:15:03.543Z,94070.72
2022-11-09T14:18:10.780Z,94066.13
2022-11-09T14:21:08.365Z,94062.28
2022-11-09T14:23:54.155Z,94067.31
2022-11-09T14:26:38.915Z,94073.66
2022-11-09T14:29:25.621Z,94069.50
2022-11-09T14:32:31.609Z,94075.38
2022-11-09T14:35:22.413Z,94090.19
2022-11-09T14:38:21.493Z,94076.97
2022-11-09T14:41:19.930Z,94089.88
2022-11-09T14:44:05.488Z,94102.53
2022-11-09T14:46:55.707Z,94102.38
2022-11-09T14:49:41.328Z,94106.38
2022-11-09T14:52:28.865Z,94109.16
2022-11-09T14:55:16.382Z,94110.09
2022-11-09T14:58:02.613Z,94108.09
2022-11-09T15:01:20.110Z,94112.91
2022-11-09T15:04:09.117Z,94112.28
2022-11-09T15:07:03.829Z,94111.34
2022-11-09T15:09:52.113Z,94110.91
2022-11-09T15:12:39.186Z,94105.97
2022-11-09T15:15:29.576Z,94122.28
2022-11-09T15:18:33.577Z,94111.19
2022-11-09T15:21:33.023Z,94105.66
2022-11-09T15:24:19.607Z,94117.06
2022-11-09T15:27:29.519Z,94130.00
2022-11-09T15:30:43.243Z,94127.22
2022-11-09T15:33:33.607Z,94132.59
2022-11-09T15:36:31.537Z,94138.44
2022-11-09T15:39:19.302Z,94139.81
2022-11-09T15:42:04.534Z,94137.81
2022-11-09T15:44:56.176Z,94144.16
2022-11-09T15:47:41.656Z,94149.97
2022-11-09T15:50:27.671Z,94145.34
2022-11-09T15:53:13.788Z,94151.19
2022-11-09T15:56:00.362Z,94149.97
2022-11-09T15:58:48.608Z,94151.34
2022-11-09T16:01:33.971Z,94159.34
2022-11-09T16:04:19.117Z,94160.41
2022-11-09T16:07:04.063Z,94166.25
2022-11-09T16:09:49.326Z,94164.53
2022-11-09T16:12:34.156Z,94163.88
2022-11-09T16:15:20.031Z,94167.56
2022-11-09T16:18:05.650Z,94149.06
2022-11-09T16:20:50.870Z,94169.22
2022-11-09T16:23:36.187Z,94168.78
2022-11-09T16:26:21.291Z,94177.38
2022-11-09T16:29:06.557Z,94170.59
2022-11-09T16:31:52.416Z,94177.69
2022-11-09T16:34:37.928Z,94176.16
2022-11-09T16:37:23.481Z,94179.38
2022-11-09T16:40:12.738Z,94167.19
2022-11-09T16:43:00.303Z,94175.78
2022-11-09T16:45:48.685Z,94190.75
2022-11-09T16:48:34.544Z,94197.63
2022-11-09T16:51:19.935Z,94190.09
2022-11-09T16:54:05.213Z,94191.47
2022-11-09T16:56:52.196Z,94198.06
2022-11-09T16:59:37.251Z,94189.75
2022-11-09T17:02:24.784Z,94195.56
2022-11-09T17:05:09.949Z,94183.69
2022-11-09T17:07:55.222Z,94211.84
2022-11-09T17:10:42.256Z,94212.16
2022-11-09T17:13:27.459Z,94210.59
2022-11-09T17:16:13.563Z,94219.81
2022-11-09T17:18:59.959Z,94219.06
2022-11-09T17:21:45.090Z,94225.16
2022-11-09T17:24:30.517Z,94227.59
2022-11-09T17:27:16.699Z,94236.34
2022-11-09T17:30:02.066Z,94239.84
2022-11-09T17:32:48.530Z,94245.22
2022-11-09T17:35:36.579Z,94246.56
2022-11-09T17:38:22.099Z,94249.00
2022-11-09T17:41:09.337Z,94246.22
2022-11-09T17:43:54.388Z,94260.63
2022-11-09T17:46:39.216Z,94260.63
2022-11-09T17:49:24.144Z,94274.00
2022-11-09T17:52:09.020Z,94277.66
2022-11-09T17:54:53.870Z,94274.09
2022-11-09T17:57:38.785Z,94280.38
2022-11-09T18:00:23.777Z,94288.81
2022-11-09T18:03:09.281Z,94270.00
2022-11-09T18:05:54.153Z,94288.94
2022-11-09T18:08:39.051Z,94290.75
2022-11-09T18:11:24.736Z,94291.34
2022-11-09T18:14:11.172Z,94291.66
2022-11-09T18:16:56.195Z,94295.31
2022-11-09T18:19:41.241Z,94298.97
2022-11-09T18:22:25.994Z,94298.03
2022-11-09T18:25:11.376Z,94299.09
2022-11-09T18:27:57.015Z,94296.22
2022-11-09T18:30:41.943Z,94302.19
2022-11-09T18:33:26.882Z,94299.09
2022-11-09T18:36:15.451Z,94304.78
2022-11-09T18:39:03.021Z,94296.50
2022-11-09T18:41:48.209Z,94298.03
2022-11-09T18:44:33.100Z,94299.56
2022-11-09T18:47:18.243Z,94300.66
2022-11-09T18:50:03.534Z,94301.72
2022-11-09T18:52:48.662Z,94303.25
2022-11-09T18:55:33.556Z,94306.66
2022-11-09T18:58:18.727Z,94307.41
2022-11-09T19:01:06.310Z,94302.75
2022-11-09T19:03:56.278Z,94302.50
2022-11-09T19:06:44.513Z,94268.88
2022-11-09T19:09:30.325Z,94291.84
2022-11-09T19:12:15.327Z,94303.06
2022-11-09T19:15:01.577Z,94313.50
2022-11-09T19:17:46.356Z,94319.78
2022-11-09T19:20:31.650Z,94317.19
2022-11-09T19:23:16.574Z,94321.66
2022-11-09T19:26:02.037Z,94326.38
2022-11-09T19:28:46.993Z,94329.75
2022-11-09T19:31:32.024Z,94332.16
2022-11-09T19:34:18.849Z,94329.84
2022-11-09T19:37:03.959Z,94335.38
2022-11-09T19:39:49.146Z,94340.59
2022-11-09T19:42:34.316Z,94345.81
2022-11-09T19:45:19.626Z,94340.22
2022-11-09T19:48:04.614Z,94350.53
2022-11-09T19:50:51.195Z,94360.50
2022-11-09T19:53:42.014Z,94356.63
2022-11-09T19:56:31.157Z,94355.28
2022-11-09T19:59:17.083Z,94363.78
2022-11-09T20:02:01.961Z,94364.06
2022-11-09T20:04:48.391Z,94364.84
2022-11-09T20:07:33.387Z,94362.81
2022-11-09T20:10:18.758Z,94368.03
2022-11-09T20:13:03.934Z,94365.94
2022-11-09T20:15:48.785Z,94374.22
2022-11-09T20:18:38.211Z,94380.22
2022-11-09T20:21:23.194Z,94381.59
2022-11-09T20:24:08.334Z,94385.25
2022-11-09T20:26:53.364Z,94390.00
2022-11-09T20:29:38.110Z,94391.81
2022-11-09T20:32:23.766Z,94399.88
2022-11-09T20:35:09.452Z,94397.03
2022-11-09T20:37:54.655Z,94397.03
2022-11-09T20:40:39.616Z,94405.88
2022-11-09T20:43:25.824Z,94410.94
2022-11-09T20:46:20.173Z,94420.38
2022-11-09T20:49:05.706Z,94423.84
2022-11-09T20:51:50.485Z,94428.88
2022-11-09T20:54:35.408Z,94427.31
2022-11-09T20:57:21.446Z,94429.44
2022-11-09T21:00:07.704Z,94419.19
2022-11-09T21:02:52.842Z,94437.34
2022-11-09T21:05:37.643Z,94442.09
2022-11-09T21:08:22.899Z,94438.50
2022-11-09T21:11:09.640Z,94440.06
2022-11-09T21:13:55.365Z,94442.16
2022-11-09T21:16:40.332Z,94454.72
2022-11-09T21:19:25.144Z,94447.97
2022-11-09T21:22:10.185Z,94454.22
2022-11-09T21:25:14.046Z,94450.84
2022-11-09T21:28:31.443Z,94458.41
2022-11-09T21:31:16.213Z,94472.28
2022-11-09T21:34:01.493Z,94468.41
2022-11-09T21:36:46.430Z,94465.09
2022-11-09T21:39:31.861Z,94471.56
2022-11-09T21:42:16.862Z,94463.84
2022-11-09T21:45:01.981Z,94470.09
2022-11-09T21:47:46.880Z,94465.06
2022-11-09T21:50:31.964Z,94480.34
2022-11-09T21:53:17.071Z,94482.25
2022-11-09T21:56:01.925Z,94489.00
2022-11-09T21:58:48.018Z,94486.97
2022-11-09T22:01:32.990Z,94486.19
2022-11-09T22:04:17.991Z,94503.44
2022-11-09T22:07:02.803Z,94488.59
2022-11-09T22:10:09.354Z,94492.75
2022-11-09T22:13:13.396Z,94491.97
2022-11-09T22:16:09.343Z,94492.25
2022-11-09T22:19:12.982Z,94502.19
2022-11-09T22:21:58.111Z,94493.41
2022-11-09T22:24:43.004Z,94490.28
2022-11-09T22:27:31.175Z,94477.88
2022-11-09T22:30:16.715Z,94493.97
2022-11-09T22:33:01.630Z,94502.03
2022-11-09T22:35:54.052Z,94506.47
2022-11-09T22:38:38.929Z,94489.16
2022-11-09T22:41:24.568Z,94516.91
2022-11-09T22:44:09.861Z,94511.69
2022-11-09T22:46:55.197Z,94513.81
2022-11-09T22:49:40.368Z,94514.84
2022-11-09T22:52:25.487Z,94518.22
2022-11-09T22:55:10.597Z,94505.84
2022-11-09T22:57:56.868Z,94525.78
2022-11-09T23:00:42.234Z,94517.44
2022-11-09T23:03:27.329Z,94525.28
2022-11-09T23:06:21.840Z,94522.41
2022-11-09T23:09:06.996Z,94538.28
2022-11-09T23:11:52.128Z,94539.84
2022-11-09T23:14:55.906Z,94544.09
2022-11-09T23:17:59.808Z,94543.59
2022-11-09T23:20:44.983Z,94548.31
2022-11-09T23:23:29.915Z,94554.56
2022-11-09T23:26:15.139Z,94555.63
2022-11-09T23:29:00.404Z,94557.94
2022-11-09T23:31:45.505Z,94560.84
2022-11-09T23:34:30.161Z,94563.16
2022-11-09T23:37:15.044Z,94569.16
2022-11-09T23:39:59.983Z,94549.72
2022-11-09T23:42:45.370Z,94573.09
2022-11-09T23:45:32.681Z,94570.19
2022-11-09T23:48:19.218Z,94565.75
2022-11-09T23:51:05.564Z,94571.75
2022-11-09T23:53:50.445Z,94570.19
2022-11-09T23:56:35.333Z,94577.75
2022-11-09T23:59:20.304Z,94586.34
